Aérodrome :
LOGIN :

S'inscrire | Disclaimer

   EN    FR    IT 

 










Légende :    VFR   VFR Marginal   IFR   IFR Intensif   IFR Très Intensif
Visi : 
Plafond : 
>= 8 km
>= 3000ft
5 à 8 km
1000 à 3000 ft
1500m à 5 km
500 à 1000 ft
800 à 1500m
200 à 500 ft
< 800m
< 200 ft
Symboles :   Orages  Brouillard  Fortes neiges  Fortes précipitations  Vent > 20 kt
SIGMETs :   Divers  Orages  Givrage  Turbulence  Onde Orograph.  Cendres Volcan.






- Altitude de l'aérodrome : 681 ft
- Code IATA : OSL


ENGM - Oslo Gardermoen

DERNIER METAR :
  • 060850Z 19011KT 9999 SCT010 BKN012 18/15 Q1018 TEMPO SCT012

METARs EXPIRÉS :
  • 060820Z 20009KT 9999 BKN009 17/15 Q1018 TEMPO SCT008 BKN012
  • 060750Z 18010KT 9999 BKN008 16/15 Q1017 TEMPO SCT008 BKN012
  • 060720Z 18009KT 9999 FEW007 BKN009 17/15 Q1017 TEMPO SCT008 BKN060
  • 060650Z 18008KT 9999 SCT008 BKN070 17/15 Q1016 TEMPO BKN008
  • 060620Z 20008KT 9999 SCT007 BKN090 17/15 Q1016 NOSIG

TAF TAF ENGM
Valide du 06 à 06h jusqu'au 07 à 06h UTC


0606/0706 18008KT 9999 SCT005 BKN080
TEMPO 0606/0612 BKN006



MET'MAP, la Météo Aéronautique d'un coup d'oeil ! - Copyright ORBIFLY Décembre 2007 - Disclaimer

ORBIFLY MET'MAP TEAM :

Programmation & Développement : Alexandra Zaïnal
Sur une idée originale de : Baudouin d'Aumeries
Assistance à la programmation : Marc-Olivier Méhu
Soutien technique & logistique : Manuel Goepfert

Contact : metmap@orbifly.com




SOURCES & CREDITS :

   NOAA